sensor_id;sensor_type;location;lat;lon;timestamp;temperature;humidity
12013;DHT22;6065;48.138;16.402;2022-10-16T00:00:21;12.80;99.90
12013;DHT22;6065;48.138;16.402;2022-10-16T00:02:48;12.80;99.90
12013;DHT22;6065;48.138;16.402;2022-10-16T00:05:14;12.70;99.90
12013;DHT22;6065;48.138;16.402;2022-10-16T00:07:41;12.70;99.90
12013;DHT22;6065;48.138;16.402;2022-10-16T00:10:08;12.70;99.90
12013;DHT22;6065;48.138;16.402;2022-10-16T00:12:37;12.70;99.90
12013;DHT22;6065;48.138;16.402;2022-10-16T00:15:05;12.70;99.90
12013;DHT22;6065;48.138;16.402;2022-10-16T00:17:32;12.70;99.90
12013;DHT22;6065;48.138;16.402;2022-10-16T00:19:58;12.70;99.90
12013;DHT22;6065;48.138;16.402;2022-10-16T00:22:25;12.70;99.90
12013;DHT22;6065;48.138;16.402;2022-10-16T00:24:53;12.70;99.90
12013;DHT22;6065;48.138;16.402;2022-10-16T00:27:20;12.70;99.90
12013;DHT22;6065;48.138;16.402;2022-10-16T00:29:50;12.70;99.90
12013;DHT22;6065;48.138;16.402;2022-10-16T00:32:17;12.70;99.90
12013;DHT22;6065;48.138;16.402;2022-10-16T00:34:45;12.70;99.90
12013;DHT22;6065;48.138;16.402;2022-10-16T00:37:13;12.70;99.90
12013;DHT22;6065;48.138;16.402;2022-10-16T00:39:40;12.60;99.90
12013;DHT22;6065;48.138;16.402;2022-10-16T00:42:09;12.60;99.90
12013;DHT22;6065;48.138;16.402;2022-10-16T00:44:43;12.60;99.90
12013;DHT22;6065;48.138;16.402;2022-10-16T00:47:13;12.60;99.90
12013;DHT22;6065;48.138;16.402;2022-10-16T00:49:42;12.60;99.90
12013;DHT22;6065;48.138;16.402;2022-10-16T00:52:09;12.60;99.90
12013;DHT22;6065;48.138;16.402;2022-10-16T00:54:36;12.60;99.90
12013;DHT22;6065;48.138;16.402;2022-10-16T00:57:04;12.60;99.90
12013;DHT22;6065;48.138;16.402;2022-10-16T00:59:32;12.60;99.90
12013;DHT22;6065;48.138;16.402;2022-10-16T01:01:59;12.60;99.90
12013;DHT22;6065;48.138;16.402;2022-10-16T01:04:28;12.60;99.90
12013;DHT22;6065;48.138;16.402;2022-10-16T01:07:00;12.60;99.90
12013;DHT22;6065;48.138;16.402;2022-10-16T01:09:34;12.60;99.90
12013;DHT22;6065;48.138;16.402;2022-10-16T01:12:06;12.60;99.90
12013;DHT22;6065;48.138;16.402;2022-10-16T01:14:37;12.60;99.90
12013;DHT22;6065;48.138;16.402;2022-10-16T01:17:06;12.60;99.90
12013;DHT22;6065;48.138;16.402;2022-10-16T01:19:44;12.60;99.90
12013;DHT22;6065;48.138;16.402;2022-10-16T01:22:16;12.60;99.90
12013;DHT22;6065;48.138;16.402;2022-10-16T01:24:44;12.60;99.90
12013;DHT22;6065;48.138;16.402;2022-10-16T01:27:14;12.60;99.90
12013;DHT22;6065;48.138;16.402;2022-10-16T01:29:44;12.60;99.90
12013;DHT22;6065;48.138;16.402;2022-10-16T01:32:16;12.60;99.90
12013;DHT22;6065;48.138;16.402;2022-10-16T01:34:46;12.60;99.90
12013;DHT22;6065;48.138;16.402;2022-10-16T01:37:14;12.60;99.90
12013;DHT22;6065;48.138;16.402;2022-10-16T01:39:42;12.60;99.90
12013;DHT22;6065;48.138;16.402;2022-10-16T01:42:15;12.50;99.90
12013;DHT22;6065;48.138;16.402;2022-10-16T01:44:43;12.60;99.90
12013;DHT22;6065;48.138;16.402;2022-10-16T01:47:11;12.50;99.90
12013;DHT22;6065;48.138;16.402;2022-10-16T01:49:39;12.50;99.90
12013;DHT22;6065;48.138;16.402;2022-10-16T01:52:10;12.50;99.90
12013;DHT22;6065;48.138;16.402;2022-10-16T01:54:39;12.50;99.90
12013;DHT22;6065;48.138;16.402;2022-10-16T01:57:07;12.50;99.90
12013;DHT22;6065;48.138;16.402;2022-10-16T01:59:36;12.50;99.90
12013;DHT22;6065;48.138;16.402;2022-10-16T02:02:05;12.50;99.90
12013;DHT22;6065;48.138;16.402;2022-10-16T02:04:34;12.50;99.90
12013;DHT22;6065;48.138;16.402;2022-10-16T02:07:02;12.50;99.90
12013;DHT22;6065;48.138;16.402;2022-10-16T02:09:29;12.50;99.90
12013;DHT22;6065;48.138;16.402;2022-10-16T02:11:56;12.40;99.90
12013;DHT22;6065;48.138;16.402;2022-10-16T02:14:23;12.40;99.90
12013;DHT22;6065;48.138;16.402;2022-10-16T02:16:52;12.40;99.90
12013;DHT22;6065;48.138;16.402;2022-10-16T02:19:19;12.40;99.90
12013;DHT22;6065;48.138;16.402;2022-10-16T02:21:48;12.40;99.90
12013;DHT22;6065;48.138;16.402;2022-10-16T02:24:18;12.40;99.90
12013;DHT22;6065;48.138;16.402;2022-10-16T02:26:48;12.40;99.90
12013;DHT22;6065;48.138;16.402;2022-10-16T02:29:19;12.30;99.90
12013;DHT22;6065;48.138;16.402;2022-10-16T02:31:48;12.30;99.90
12013;DHT22;6065;48.138;16.402;2022-10-16T02:34:18;12.30;99.90
12013;DHT22;6065;48.138;16.402;2022-10-16T02:36:45;12.30;99.90
12013;DHT22;6065;48.138;16.402;2022-10-16T02:39:13;12.40;99.90
12013;DHT22;6065;48.138;16.402;2022-10-16T02:41:40;12.40;99.90
12013;DHT22;6065;48.138;16.402;2022-10-16T02:44:07;12.40;99.90
12013;DHT22;6065;48.138;16.402;2022-10-16T02:46:34;12.30;99.90
12013;DHT22;6065;48.138;16.402;2022-10-16T02:49:01;12.30;99.90
12013;DHT22;6065;48.138;16.402;2022-10-16T02:51:29;12.30;99.90
12013;DHT22;6065;48.138;16.402;2022-10-16T02:53:59;12.30;99.90
12013;DHT22;6065;48.138;16.402;2022-10-16T02:56:25;12.30;99.90
12013;DHT22;6065;48.138;16.402;2022-10-16T02:58:52;12.30;99.90
12013;DHT22;6065;48.138;16.402;2022-10-16T03:01:19;12.30;99.90
12013;DHT22;6065;48.138;16.402;2022-10-16T03:03:46;12.30;99.90
12013;DHT22;6065;48.138;16.402;2022-10-16T03:06:13;12.30;99.90
12013;DHT22;6065;48.138;16.402;2022-10-16T03:08:42;12.30;99.90
12013;DHT22;6065;48.138;16.402;2022-10-16T03:11:08;12.30;99.90
12013;DHT22;6065;48.138;16.402;2022-10-16T03:13:35;12.30;99.90
12013;DHT22;6065;48.138;16.402;2022-10-16T03:16:02;12.30;99.90
12013;DHT22;6065;48.138;16.402;2022-10-16T03:18:29;12.30;99.90
12013;DHT22;6065;48.138;16.402;2022-10-16T03:20:55;12.30;99.90
12013;DHT22;6065;48.138;16.402;2022-10-16T03:23:22;12.30;99.90
12013;DHT22;6065;48.138;16.402;2022-10-16T03:25:51;12.30;99.90
12013;DHT22;6065;48.138;16.402;2022-10-16T03:28:20;12.30;99.90
12013;DHT22;6065;48.138;16.402;2022-10-16T03:30:48;12.30;99.90
12013;DHT22;6065;48.138;16.402;2022-10-16T03:33:15;12.30;99.90
12013;DHT22;6065;48.138;16.402;2022-10-16T03:35:42;12.30;99.90
12013;DHT22;6065;48.138;16.402;2022-10-16T03:38:09;12.30;99.90
12013;DHT22;6065;48.138;16.402;2022-10-16T03:40:36;12.20;99.90
12013;DHT22;6065;48.138;16.402;2022-10-16T03:43:04;12.20;99.90
12013;DHT22;6065;48.138;16.402;2022-10-16T03:45:31;12.20;99.90
12013;DHT22;6065;48.138;16.402;2022-10-16T03:47:58;12.20;99.90
12013;DHT22;6065;48.138;16.402;2022-10-16T03:50:25;12.20;99.90
12013;DHT22;6065;48.138;16.402;2022-10-16T03:52:51;12.10;99.90
12013;DHT22;6065;48.138;16.402;2022-10-16T03:55:18;12.10;99.90
12013;DHT22;6065;48.138;16.402;2022-10-16T03:57:45;12.10;99.90
12013;DHT22;6065;48.138;16.402;2022-10-16T04:00:13;12.20;99.90
12013;DHT22;6065;48.138;16.402;2022-10-16T04:02:40;12.10;99.90
12013;DHT22;6065;48.138;16.402;2022-10-16T04:05:07;12.10;99.90
12013;DHT22;6065;48.138;16.402;2022-10-16T04:07:33;12.00;99.90
12013;DHT22;6065;48.138;16.402;2022-10-16T04:10:00;12.00;99.90
12013;DHT22;6065;48.138;16.402;2022-10-16T04:12:27;12.00;99.90
12013;DHT22;6065;48.138;16.402;2022-10-16T04:14:54;11.90;99.90
12013;DHT22;6065;48.138;16.402;2022-10-16T04:17:22;11.90;99.90
12013;DHT22;6065;48.138;16.402;2022-10-16T04:19:50;11.80;99.90
12013;DHT22;6065;48.138;16.402;2022-10-16T04:22:16;11.80;99.90
12013;DHT22;6065;48.138;16.402;2022-10-16T04:24:43;11.80;99.90
12013;DHT22;6065;48.138;16.402;2022-10-16T04:27:10;11.80;99.90
12013;DHT22;6065;48.138;16.402;2022-10-16T04:29:37;11.80;99.90
12013;DHT22;6065;48.138;16.402;2022-10-16T04:32:04;11.80;99.90
12013;DHT22;6065;48.138;16.402;2022-10-16T04:34:32;11.80;99.90
12013;DHT22;6065;48.138;16.402;2022-10-16T04:37:00;11.70;99.90
12013;DHT22;6065;48.138;16.402;2022-10-16T04:39:27;11.70;99.90
12013;DHT22;6065;48.138;16.402;2022-10-16T04:41:54;11.70;99.90
12013;DHT22;6065;48.138;16.402;2022-10-16T04:44:22;11.60;99.90
12013;DHT22;6065;48.138;16.402;2022-10-16T04:46:49;11.70;99.90
12013;DHT22;6065;48.138;16.402;2022-10-16T04:49:17;11.70;99.90
12013;DHT22;6065;48.138;16.402;2022-10-16T04:51:45;11.60;99.90
12013;DHT22;6065;48.138;16.402;2022-10-16T04:54:11;11.60;99.90
12013;DHT22;6065;48.138;16.402;2022-10-16T04:56:38;11.60;99.90
12013;DHT22;6065;48.138;16.402;2022-10-16T04:59:12;11.60;99.90
12013;DHT22;6065;48.138;16.402;2022-10-16T05:01:38;11.60;99.90
12013;DHT22;6065;48.138;16.402;2022-10-16T05:04:05;11.60;99.90
12013;DHT22;6065;48.138;16.402;2022-10-16T05:06:32;11.60;99.90
12013;DHT22;6065;48.138;16.402;2022-10-16T05:09:00;11.50;99.90
12013;DHT22;6065;48.138;16.402;2022-10-16T05:11:27;11.60;99.90
12013;DHT22;6065;48.138;16.402;2022-10-16T05:13:53;11.60;99.90
12013;DHT22;6065;48.138;16.402;2022-10-16T05:16:20;11.70;99.90
12013;DHT22;6065;48.138;16.402;2022-10-16T05:18:47;11.70;99.90
12013;DHT22;6065;48.138;16.402;2022-10-16T05:21:13;11.70;99.90
12013;DHT22;6065;48.138;16.402;2022-10-16T05:23:41;11.70;99.90
12013;DHT22;6065;48.138;16.402;2022-10-16T05:26:09;11.70;99.90
12013;DHT22;6065;48.138;16.402;2022-10-16T05:28:35;11.70;99.90
12013;DHT22;6065;48.138;16.402;2022-10-16T05:31:04;11.60;99.90
12013;DHT22;6065;48.138;16.402;2022-10-16T05:33:30;11.60;99.90
12013;DHT22;6065;48.138;16.402;2022-10-16T05:36:00;11.70;99.90
12013;DHT22;6065;48.138;16.402;2022-10-16T05:38:26;11.70;99.90
12013;DHT22;6065;48.138;16.402;2022-10-16T05:40:53;11.70;99.90
12013;DHT22;6065;48.138;16.402;2022-10-16T05:43:22;11.70;99.90
12013;DHT22;6065;48.138;16.402;2022-10-16T05:45:55;11.70;99.90
12013;DHT22;6065;48.138;16.402;2022-10-16T05:48:22;11.70;99.90
12013;DHT22;6065;48.138;16.402;2022-10-16T05:50:55;11.70;99.90
12013;DHT22;6065;48.138;16.402;2022-10-16T05:53:22;11.70;99.90
12013;DHT22;6065;48.138;16.402;2022-10-16T05:55:53;11.80;99.90
12013;DHT22;6065;48.138;16.402;2022-10-16T05:58:22;11.80;99.90
12013;DHT22;6065;48.138;16.402;2022-10-16T06:00:53;11.80;99.90
12013;DHT22;6065;48.138;16.402;2022-10-16T06:03:20;11.80;99.90
12013;DHT22;6065;48.138;16.402;2022-10-16T06:05:47;11.80;99.90
12013;DHT22;6065;48.138;16.402;2022-10-16T06:08:14;11.90;99.90
12013;DHT22;6065;48.138;16.402;2022-10-16T06:10:41;11.90;99.90
12013;DHT22;6065;48.138;16.402;2022-10-16T06:13:09;11.90;99.90
12013;DHT22;6065;48.138;16.402;2022-10-16T06:15:37;11.80;99.90
12013;DHT22;6065;48.138;16.402;2022-10-16T06:18:04;11.80;99.90
12013;DHT22;6065;48.138;16.402;2022-10-16T06:20:31;11.80;99.90
12013;DHT22;6065;48.138;16.402;2022-10-16T06:22:58;11.90;99.90
12013;DHT22;6065;48.138;16.402;2022-10-16T06:25:25;11.90;99.90
12013;DHT22;6065;48.138;16.402;2022-10-16T06:27:52;11.90;99.90
12013;DHT22;6065;48.138;16.402;2022-10-16T06:30:19;11.90;99.90
12013;DHT22;6065;48.138;16.402;2022-10-16T06:32:47;11.90;99.90
12013;DHT22;6065;48.138;16.402;2022-10-16T06:35:14;11.90;99.90
12013;DHT22;6065;48.138;16.402;2022-10-16T06:37:41;11.90;99.90
12013;DHT22;6065;48.138;16.402;2022-10-16T06:40:08;11.90;99.90
12013;DHT22;6065;48.138;16.402;2022-10-16T06:42:34;11.90;99.90
12013;DHT22;6065;48.138;16.402;2022-10-16T06:45:01;11.80;99.90
12013;DHT22;6065;48.138;16.402;2022-10-16T06:47:28;11.80;99.90
12013;DHT22;6065;48.138;16.402;2022-10-16T06:49:56;11.90;99.90
12013;DHT22;6065;48.138;16.402;2022-10-16T06:52:23;12.00;99.90
12013;DHT22;6065;48.138;16.402;2022-10-16T06:54:50;12.00;99.90
12013;DHT22;6065;48.138;16.402;2022-10-16T06:57:17;12.00;99.90
12013;DHT22;6065;48.138;16.402;2022-10-16T06:59:44;12.00;99.90
12013;DHT22;6065;48.138;16.402;2022-10-16T07:02:11;12.10;99.90
12013;DHT22;6065;48.138;16.402;2022-10-16T07:04:37;12.10;99.90
12013;DHT22;6065;48.138;16.402;2022-10-16T07:07:05;12.10;99.90
12013;DHT22;6065;48.138;16.402;2022-10-16T07:09:32;12.10;99.90
12013;DHT22;6065;48.138;16.402;2022-10-16T07:11:59;12.10;99.90
12013;DHT22;6065;48.138;16.402;2022-10-16T07:14:26;12.10;99.90
12013;DHT22;6065;48.138;16.402;2022-10-16T07:16:56;12.20;99.90
12013;DHT22;6065;48.138;16.402;2022-10-16T07:19:22;12.10;99.90
12013;DHT22;6065;48.138;16.402;2022-10-16T07:21:50;12.00;99.90
12013;DHT22;6065;48.138;16.402;2022-10-16T07:24:19;12.10;99.90
12013;DHT22;6065;48.138;16.402;2022-10-16T07:26:46;12.10;99.90
12013;DHT22;6065;48.138;16.402;2022-10-16T07:29:13;12.10;99.90
12013;DHT22;6065;48.138;16.402;2022-10-16T07:31:41;12.10;99.90
12013;DHT22;6065;48.138;16.402;2022-10-16T07:34:09;12.10;99.90
12013;DHT22;6065;48.138;16.402;2022-10-16T07:36:36;12.10;99.90
12013;DHT22;6065;48.138;16.402;2022-10-16T07:39:03;12.10;99.90
12013;DHT22;6065;48.138;16.402;2022-10-16T07:41:31;12.10;99.90
12013;DHT22;6065;48.138;16.402;2022-10-16T07:44:02;12.10;99.90
12013;DHT22;6065;48.138;16.402;2022-10-16T07:46:29;12.10;99.90
12013;DHT22;6065;48.138;16.402;2022-10-16T07:48:59;12.20;99.90
12013;DHT22;6065;48.138;16.402;2022-10-16T07:51:26;12.20;99.90
12013;DHT22;6065;48.138;16.402;2022-10-16T07:53:52;12.20;99.90
12013;DHT22;6065;48.138;16.402;2022-10-16T07:56:20;12.20;99.90
12013;DHT22;6065;48.138;16.402;2022-10-16T07:58:49;12.20;99.90
12013;DHT22;6065;48.138;16.402;2022-10-16T08:01:16;12.20;99.90
12013;DHT22;6065;48.138;16.402;2022-10-16T08:03:43;12.20;99.90
12013;DHT22;6065;48.138;16.402;2022-10-16T08:06:10;12.20;99.90
12013;DHT22;6065;48.138;16.402;2022-10-16T08:08:37;12.30;99.90
12013;DHT22;6065;48.138;16.402;2022-10-16T08:11:04;12.20;99.90
12013;DHT22;6065;48.138;16.402;2022-10-16T08:13:31;12.20;99.90
12013;DHT22;6065;48.138;16.402;2022-10-16T08:15:59;12.20;99.90
12013;DHT22;6065;48.138;16.402;2022-10-16T08:18:26;12.20;99.90
12013;DHT22;6065;48.138;16.402;2022-10-16T08:20:56;12.20;99.90
12013;DHT22;6065;48.138;16.402;2022-10-16T08:23:23;12.20;99.90
12013;DHT22;6065;48.138;16.402;2022-10-16T08:25:51;12.20;99.90
12013;DHT22;6065;48.138;16.402;2022-10-16T08:28:18;12.20;99.90
12013;DHT22;6065;48.138;16.402;2022-10-16T08:30:45;12.30;99.90
12013;DHT22;6065;48.138;16.402;2022-10-16T08:33:13;12.30;99.90
12013;DHT22;6065;48.138;16.402;2022-10-16T08:35:40;12.40;99.90
12013;DHT22;6065;48.138;16.402;2022-10-16T08:38:07;12.40;99.90
12013;DHT22;6065;48.138;16.402;2022-10-16T08:40:35;12.40;99.90
12013;DHT22;6065;48.138;16.402;2022-10-16T08:43:09;12.40;99.90
12013;DHT22;6065;48.138;16.402;2022-10-16T08:45:42;12.50;99.90
12013;DHT22;6065;48.138;16.402;2022-10-16T08:48:17;12.50;99.90
12013;DHT22;6065;48.138;16.402;2022-10-16T08:50:44;12.50;99.90
12013;DHT22;6065;48.138;16.402;2022-10-16T08:53:14;12.50;99.90
12013;DHT22;6065;48.138;16.402;2022-10-16T08:55:43;12.50;99.90
12013;DHT22;6065;48.138;16.402;2022-10-16T08:58:13;12.50;99.90
12013;DHT22;6065;48.138;16.402;2022-10-16T09:00:40;12.50;99.90
12013;DHT22;6065;48.138;16.402;2022-10-16T09:03:11;12.50;99.90
12013;DHT22;6065;48.138;16.402;2022-10-16T09:05:46;12.50;99.90
12013;DHT22;6065;48.138;16.402;2022-10-16T09:08:20;12.60;99.90
12013;DHT22;6065;48.138;16.402;2022-10-16T09:10:52;12.60;99.90
12013;DHT22;6065;48.138;16.402;2022-10-16T09:13:23;12.70;99.90
12013;DHT22;6065;48.138;16.402;2022-10-16T09:15:54;12.70;99.90
12013;DHT22;6065;48.138;16.402;2022-10-16T09:18:23;12.70;99.90
12013;DHT22;6065;48.138;16.402;2022-10-16T09:20:56;12.80;99.90
12013;DHT22;6065;48.138;16.402;2022-10-16T09:23:25;12.80;99.90
12013;DHT22;6065;48.138;16.402;2022-10-16T09:25:52;12.80;99.90
12013;DHT22;6065;48.138;16.402;2022-10-16T09:28:19;12.80;99.90
12013;DHT22;6065;48.138;16.402;2022-10-16T09:30:47;12.80;99.90
12013;DHT22;6065;48.138;16.402;2022-10-16T09:33:15;12.80;99.90
12013;DHT22;6065;48.138;16.402;2022-10-16T09:35:43;12.80;99.90
12013;DHT22;6065;48.138;16.402;2022-10-16T09:38:21;12.90;99.90
12013;DHT22;6065;48.138;16.402;2022-10-16T09:40:49;12.80;99.90
12013;DHT22;6065;48.138;16.402;2022-10-16T09:43:19;12.80;99.90
12013;DHT22;6065;48.138;16.402;2022-10-16T09:45:54;12.80;99.90
12013;DHT22;6065;48.138;16.402;2022-10-16T09:48:21;12.90;99.90
12013;DHT22;6065;48.138;16.402;2022-10-16T09:50:55;12.90;99.90
12013;DHT22;6065;48.138;16.402;2022-10-16T09:53:24;13.00;99.90
12013;DHT22;6065;48.138;16.402;2022-10-16T09:55:54;13.00;99.90
12013;DHT22;6065;48.138;16.402;2022-10-16T09:58:21;13.00;99.90
12013;DHT22;6065;48.138;16.402;2022-10-16T10:00:48;13.00;99.90
12013;DHT22;6065;48.138;16.402;2022-10-16T10:03:19;13.10;99.90
12013;DHT22;6065;48.138;16.402;2022-10-16T10:05:50;13.10;99.90
12013;DHT22;6065;48.138;16.402;2022-10-16T10:08:17;13.10;99.90
12013;DHT22;6065;48.138;16.402;2022-10-16T10:10:47;13.10;99.90
12013;DHT22;6065;48.138;16.402;2022-10-16T10:13:17;13.20;99.90
12013;DHT22;6065;48.138;16.402;2022-10-16T10:15:44;13.20;99.90
12013;DHT22;6065;48.138;16.402;2022-10-16T10:18:15;13.20;99.90
12013;DHT22;6065;48.138;16.402;2022-10-16T10:20:43;13.20;99.90
12013;DHT22;6065;48.138;16.402;2022-10-16T10:23:19;13.30;99.90
12013;DHT22;6065;48.138;16.402;2022-10-16T10:25:51;13.30;99.90
12013;DHT22;6065;48.138;16.402;2022-10-16T10:28:29;13.30;99.90
12013;DHT22;6065;48.138;16.402;2022-10-16T10:31:03;13.40;99.90
12013;DHT22;6065;48.138;16.402;2022-10-16T10:33:37;13.40;99.90
12013;DHT22;6065;48.138;16.402;2022-10-16T10:36:10;13.40;99.90
12013;DHT22;6065;48.138;16.402;2022-10-16T10:38:39;13.50;99.90
12013;DHT22;6065;48.138;16.402;2022-10-16T10:41:19;13.50;99.90
12013;DHT22;6065;48.138;16.402;2022-10-16T10:43:52;13.50;99.90
12013;DHT22;6065;48.138;16.402;2022-10-16T10:46:23;13.50;99.90
12013;DHT22;6065;48.138;16.402;2022-10-16T10:48:59;13.60;99.90
12013;DHT22;6065;48.138;16.402;2022-10-16T10:51:31;13.70;99.90
12013;DHT22;6065;48.138;16.402;2022-10-16T10:54:07;13.70;99.90
12013;DHT22;6065;48.138;16.402;2022-10-16T10:56:42;13.80;99.90
12013;DHT22;6065;48.138;16.402;2022-10-16T11:01:56;14.10;99.90
12013;DHT22;6065;48.138;16.402;2022-10-16T11:04:39;14.20;99.90
12013;DHT22;6065;48.138;16.402;2022-10-16T11:07:12;14.30;99.90
12013;DHT22;6065;48.138;16.402;2022-10-16T11:09:42;14.40;99.90
12013;DHT22;6065;48.138;16.402;2022-10-16T11:12:14;14.50;99.90
12013;DHT22;6065;48.138;16.402;2022-10-16T11:14:45;14.60;99.90
12013;DHT22;6065;48.138;16.402;2022-10-16T11:17:15;14.80;99.90
12013;DHT22;6065;48.138;16.402;2022-10-16T11:19:44;15.00;99.90
12013;DHT22;6065;48.138;16.402;2022-10-16T11:22:15;15.20;99.90
12013;DHT22;6065;48.138;16.402;2022-10-16T11:24:45;15.30;99.90
12013;DHT22;6065;48.138;16.402;2022-10-16T11:27:16;15.50;99.90
12013;DHT22;6065;48.138;16.402;2022-10-16T11:29:45;15.60;99.90
12013;DHT22;6065;48.138;16.402;2022-10-16T11:32:16;15.70;99.90
12013;DHT22;6065;48.138;16.402;2022-10-16T11:34:47;15.80;99.90
12013;DHT22;6065;48.138;16.402;2022-10-16T11:37:17;15.90;99.90
12013;DHT22;6065;48.138;16.402;2022-10-16T11:39:46;15.90;99.90
12013;DHT22;6065;48.138;16.402;2022-10-16T11:42:13;15.90;99.90
12013;DHT22;6065;48.138;16.402;2022-10-16T11:44:48;15.90;99.90
12013;DHT22;6065;48.138;16.402;2022-10-16T11:47:22;15.90;99.90
12013;DHT22;6065;48.138;16.402;2022-10-16T11:49:51;15.90;99.90
12013;DHT22;6065;48.138;16.402;2022-10-16T11:52:20;16.00;99.90
12013;DHT22;6065;48.138;16.402;2022-10-16T11:54:50;16.00;99.90
12013;DHT22;6065;48.138;16.402;2022-10-16T11:57:19;16.10;99.90
12013;DHT22;6065;48.138;16.402;2022-10-16T11:59:50;16.20;99.90
12013;DHT22;6065;48.138;16.402;2022-10-16T12:05:05;16.30;99.90
12013;DHT22;6065;48.138;16.402;2022-10-16T12:07:34;16.40;99.90
12013;DHT22;6065;48.138;16.402;2022-10-16T12:10:09;16.40;99.90
12013;DHT22;6065;48.138;16.402;2022-10-16T12:12:37;16.40;99.90
12013;DHT22;6065;48.138;16.402;2022-10-16T12:15:18;16.40;99.90
12013;DHT22;6065;48.138;16.402;2022-10-16T12:17:45;16.40;99.90
12013;DHT22;6065;48.138;16.402;2022-10-16T12:20:23;16.50;99.90
12013;DHT22;6065;48.138;16.402;2022-10-16T12:22:52;16.50;99.90
12013;DHT22;6065;48.138;16.402;2022-10-16T12:25:21;16.60;99.90
12013;DHT22;6065;48.138;16.402;2022-10-16T12:27:55;16.60;99.90
12013;DHT22;6065;48.138;16.402;2022-10-16T12:30:24;16.60;99.90
12013;DHT22;6065;48.138;16.402;2022-10-16T12:32:53;16.60;99.90
12013;DHT22;6065;48.138;16.402;2022-10-16T12:35:20;16.70;99.90
12013;DHT22;6065;48.138;16.402;2022-10-16T12:37:48;16.70;99.90
12013;DHT22;6065;48.138;16.402;2022-10-16T12:40:15;16.70;99.90
12013;DHT22;6065;48.138;16.402;2022-10-16T12:42:43;16.70;99.90
12013;DHT22;6065;48.138;16.402;2022-10-16T12:45:25;16.70;99.90
12013;DHT22;6065;48.138;16.402;2022-10-16T12:47:52;16.70;99.90
12013;DHT22;6065;48.138;16.402;2022-10-16T12:50:24;16.70;99.90
12013;DHT22;6065;48.138;16.402;2022-10-16T12:52:52;16.70;99.90
12013;DHT22;6065;48.138;16.402;2022-10-16T12:55:20;16.70;99.90
12013;DHT22;6065;48.138;16.402;2022-10-16T12:57:53;16.70;99.90
12013;DHT22;6065;48.138;16.402;2022-10-16T13:00:26;16.80;99.90
12013;DHT22;6065;48.138;16.402;2022-10-16T13:03:02;16.90;99.90
12013;DHT22;6065;48.138;16.402;2022-10-16T13:05:37;16.90;99.90
12013;DHT22;6065;48.138;16.402;2022-10-16T13:08:09;16.90;99.90
12013;DHT22;6065;48.138;16.402;2022-10-16T13:10:40;16.90;99.90
12013;DHT22;6065;48.138;16.402;2022-10-16T13:13:17;16.80;99.90
12013;DHT22;6065;48.138;16.402;2022-10-16T13:15:54;16.80;99.90
12013;DHT22;6065;48.138;16.402;2022-10-16T13:18:26;16.80;99.90
12013;DHT22;6065;48.138;16.402;2022-10-16T13:21:00;16.90;99.90
12013;DHT22;6065;48.138;16.402;2022-10-16T13:23:29;17.00;99.90
12013;DHT22;6065;48.138;16.402;2022-10-16T13:26:01;17.00;99.90
12013;DHT22;6065;48.138;16.402;2022-10-16T13:28:34;17.00;99.90
12013;DHT22;6065;48.138;16.402;2022-10-16T13:31:04;17.10;99.90
12013;DHT22;6065;48.138;16.402;2022-10-16T13:33:32;17.20;99.90
12013;DHT22;6065;48.138;16.402;2022-10-16T13:36:02;17.40;99.90
12013;DHT22;6065;48.138;16.402;2022-10-16T13:38:30;17.40;99.90
12013;DHT22;6065;48.138;16.402;2022-10-16T13:40:58;17.40;99.90
12013;DHT22;6065;48.138;16.402;2022-10-16T13:43:27;17.40;99.90
12013;DHT22;6065;48.138;16.402;2022-10-16T13:45:55;17.40;99.90
12013;DHT22;6065;48.138;16.402;2022-10-16T13:48:23;17.40;99.90
12013;DHT22;6065;48.138;16.402;2022-10-16T13:51:00;17.50;99.90
12013;DHT22;6065;48.138;16.402;2022-10-16T13:53:29;17.50;99.90
12013;DHT22;6065;48.138;16.402;2022-10-16T13:55:56;17.50;99.90
12013;DHT22;6065;48.138;16.402;2022-10-16T13:58:23;17.60;99.90
12013;DHT22;6065;48.138;16.402;2022-10-16T14:00:53;17.60;99.90
12013;DHT22;6065;48.138;16.402;2022-10-16T14:03:20;17.60;99.90
12013;DHT22;6065;48.138;16.402;2022-10-16T14:05:49;17.60;99.90
12013;DHT22;6065;48.138;16.402;2022-10-16T14:08:16;17.70;99.90
12013;DHT22;6065;48.138;16.402;2022-10-16T14:10:46;17.70;99.90
12013;DHT22;6065;48.138;16.402;2022-10-16T14:13:14;17.80;99.90
12013;DHT22;6065;48.138;16.402;2022-10-16T14:15:45;17.80;99.90
12013;DHT22;6065;48.138;16.402;2022-10-16T14:18:13;17.80;99.90
12013;DHT22;6065;48.138;16.402;2022-10-16T14:20:46;17.80;99.90
12013;DHT22;6065;48.138;16.402;2022-10-16T14:23:22;17.80;99.90
12013;DHT22;6065;48.138;16.402;2022-10-16T14:25:49;17.80;99.90
12013;DHT22;6065;48.138;16.402;2022-10-16T14:28:17;17.80;99.90
12013;DHT22;6065;48.138;16.402;2022-10-16T14:30:51;17.90;99.90
12013;DHT22;6065;48.138;16.402;2022-10-16T14:33:20;17.90;99.90
12013;DHT22;6065;48.138;16.402;2022-10-16T14:35:56;17.90;99.90
12013;DHT22;6065;48.138;16.402;2022-10-16T14:38:25;17.90;99.90
12013;DHT22;6065;48.138;16.402;2022-10-16T14:40:52;18.00;99.90
12013;DHT22;6065;48.138;16.402;2022-10-16T14:43:20;18.00;99.90
12013;DHT22;6065;48.138;16.402;2022-10-16T14:45:50;17.90;99.90
12013;DHT22;6065;48.138;16.402;2022-10-16T14:48:18;17.90;99.90
12013;DHT22;6065;48.138;16.402;2022-10-16T14:50:46;17.90;99.90
12013;DHT22;6065;48.138;16.402;2022-10-16T14:53:13;17.90;99.90
12013;DHT22;6065;48.138;16.402;2022-10-16T14:55:41;17.90;99.90
12013;DHT22;6065;48.138;16.402;2022-10-16T14:58:10;17.90;99.90
12013;DHT22;6065;48.138;16.402;2022-10-16T15:00:40;17.90;99.90
12013;DHT22;6065;48.138;16.402;2022-10-16T15:03:07;17.90;99.90
12013;DHT22;6065;48.138;16.402;2022-10-16T15:05:33;17.90;99.90
12013;DHT22;6065;48.138;16.402;2022-10-16T15:08:00;17.90;99.90
12013;DHT22;6065;48.138;16.402;2022-10-16T15:10:27;17.90;99.90
12013;DHT22;6065;48.138;16.402;2022-10-16T15:12:56;17.90;99.90
12013;DHT22;6065;48.138;16.402;2022-10-16T15:15:24;17.80;99.90
12013;DHT22;6065;48.138;16.402;2022-10-16T15:17:52;17.80;99.90
12013;DHT22;6065;48.138;16.402;2022-10-16T15:20:21;17.80;99.90
12013;DHT22;6065;48.138;16.402;2022-10-16T15:22:48;17.80;99.90
12013;DHT22;6065;48.138;16.402;2022-10-16T15:25:17;17.70;99.90
12013;DHT22;6065;48.138;16.402;2022-10-16T15:27:52;17.70;99.90
12013;DHT22;6065;48.138;16.402;2022-10-16T15:30:20;17.70;99.90
12013;DHT22;6065;48.138;16.402;2022-10-16T15:32:47;17.70;99.90
12013;DHT22;6065;48.138;16.402;2022-10-16T15:35:13;17.70;99.90
12013;DHT22;6065;48.138;16.402;2022-10-16T15:37:40;17.70;99.90
12013;DHT22;6065;48.138;16.402;2022-10-16T15:40:07;17.60;99.90
12013;DHT22;6065;48.138;16.402;2022-10-16T15:42:35;17.60;99.90
12013;DHT22;6065;48.138;16.402;2022-10-16T15:45:01;17.60;99.90